Map

Track Data

SID SEASON NUMBER BASIN SUBBASIN NAME ISO_TIME NATURE LAT LON WMO_WIND WMO_PRES WMO_AGENCY TRACK_TYPE DIST2LAND LANDFALL IFLAG USA_AGENCY USA_ATCF_ID USA_LAT USA_LON USA_RECORD USA_STATUS USA_WIND USA_PRES USA_SSHS USA_R34_NE USA_R34_SE USA_R34_SW USA_R34_NW USA_R50_NE USA_R50_SE USA_R50_SW USA_R50_NW USA_R64_NE USA_R64_SE USA_R64_SW USA_R64_NW USA_POCI USA_ROCI USA_RMW USA_EYE TOKYO_LAT TOKYO_LON TOKYO_GRADE TOKYO_WIND TOKYO_PRES TOKYO_R50_DIR TOKYO_R50_LONG TOKYO_R50_SHORT TOKYO_R30_DIR TOKYO_R30_LONG TOKYO_R30_SHORT TOKYO_LAND CMA_LAT CMA_LON CMA_CAT CMA_WIND CMA_PRES HKO_LAT HKO_LON HKO_CAT HKO_WIND HKO_PRES NEWDELHI_LAT NEWDELHI_LON NEWDELHI_GRADE NEWDELHI_WIND NEWDELHI_PRES NEWDELHI_CI NEWDELHI_DP NEWDELHI_POCI REUNION_LAT REUNION_LON REUNION_TYPE REUNION_WIND REUNION_PRES REUNION_TNUM REUNION_CI REUNION_RMW REUNION_R34_NE REUNION_R34_SE REUNION_R34_SW REUNION_R34_NW REUNION_R50_NE REUNION_R50_SE REUNION_R50_SW REUNION_R50_NW REUNION_R64_NE REUNION_R64_SE REUNION_R64_SW REUNION_R64_NW BOM_LAT BOM_LON BOM_TYPE BOM_WIND BOM_PRES BOM_TNUM BOM_CI BOM_RMW BOM_R34_NE BOM_R34_SE BOM_R34_SW BOM_R34_NW BOM_R50_NE BOM_R50_SE BOM_R50_SW BOM_R50_NW BOM_R64_NE BOM_R64_SE BOM_R64_SW BOM_R64_NW BOM_ROCI BOM_POCI BOM_EYE BOM_POS_METHOD BOM_PRES_METHOD NADI_LAT NADI_LON NADI_CAT NADI_WIND NADI_PRES WELLINGTON_LAT WELLINGTON_LON WELLINGTON_WIND WELLINGTON_PRES DS824_LAT DS824_LON DS824_STAGE DS824_WIND DS824_PRES TD9636_LAT TD9636_LON TD9636_STAGE TD9636_WIND TD9636_PRES TD9635_LAT TD9635_LON TD9635_WIND TD9635_PRES TD9635_ROCI NEUMANN_LAT NEUMANN_LON NEUMANN_CLASS NEUMANN_WIND NEUMANN_PRES MLC_LAT MLC_LON MLC_CLASS MLC_WIND MLC_PRES USA_GUST BOM_GUST BOM_GUST_PER REUNION_GUST REUNION_GUST_PER USA_SEAHGT USA_SEARAD_NE USA_SEARAD_SE USA_SEARAD_SW USA_SEARAD_NW STORM_SPEED STORM_DIR
1970022S11064 1970 8 SI MM HERMINE 1970-01-22 00:00:00 TS -11.4000 64.3000 main 1202 1119 O________OO___ jtwc_sh SH121970 -11.4000 64.3000 -1 -11.4000 64.3000 TC 25 -11.4000 64.3000 1 17 229
1970022S11064 1970 8 SI MM HERMINE 1970-01-22 03:00:00 TS -11.9557 63.6481 main 1103 1036 P________PP___ SH121970 -11.9479 63.6405 -1 -11.9479 63.6405 TC 25 -11.9715 63.6632 1 16 231
1970022S11064 1970 8 SI MM HERMINE 1970-01-22 06:00:00 TS -12.4183 63.0264 reunion main 1030 954 O____O___OP_O_ jtwc_sh SH121970 -12.5000 63.0000 -1 -12.0000 63.1000 3 9.90000 -12.5000 63.0000 TC 25 -12.5339 63.0300 1 -12.0000 63.1000 TC 35 15 229
1970022S11064 1970 8 SI MM HERMINE 1970-01-22 09:00:00 TS -12.9572 62.4679 main 944 878 P____P___PP_P_ SH121970 -13.0573 62.3923 -1 -12.6350 62.6805 3 -13.0573 62.3923 TC 25 -13.0793 62.4068 1 -12.6350 62.6805 TC 35 15 225
1970022S11064 1970 8 SI MM HERMINE 1970-01-22 12:00:00 TS -13.4667 61.9333 reunion main 863 797 O____O___OO_O_ jtwc_sh SH121970 -13.6000 61.8000 -1 -13.2000 62.2000 99 9.90000 -13.6000 61.8000 TC 25 -13.6000 61.8000 1 -13.2000 62.2000 TC 35 14 228
1970022S11064 1970 8 SI MM HERMINE 1970-01-22 15:00:00 TS -13.9273 61.3685 main 797 717 P____P___PP_P_ SH121970 -14.1149 61.1923 -1 -13.6575 61.6221 99 -14.1149 61.1923 TC 25 -14.0918 61.2135 1 -13.6575 61.6221 TC 35 15 231
1970022S11064 1970 8 SI MM HERMINE 1970-01-22 18:00:00 TS -14.3928 60.7682 reunion main 717 649 O____O___OP_O_ jtwc_sh SH121970 -14.6000 60.6000 -1 -14.1000 61.0000 99 9.90000 -14.6000 60.6000 TC 25 -14.5641 60.6408 1 -14.1000 61.0000 TC 35 15 230
1970022S11064 1970 8 SI MM HERMINE 1970-01-22 21:00:00 TS -14.8767 60.2002 main 639 566 P____P___PP_P_ SH121970 -15.0498 60.0495 -1 -14.6272 60.4146 99 -15.0498 60.0495 TC 30 -15.0293 60.0728 1 -14.6272 60.4146 TC 35 15 228
1970022S11064 1970 8 SI MM HERMINE 1970-01-23 00:00:00 TS -15.3800 59.6200 reunion main 563 489 O____O___OO_O_ jtwc_sh SH121970 -15.5000 59.5000 -1 -15.2000 59.8000 99 9.90000 -15.5000 59.5000 TC 35 -15.5000 59.5000 2 -15.2000 59.8000 TC 35 16 229
1970022S11064 1970 8 SI MM HERMINE 1970-01-23 03:00:00 TS -15.9253 58.9690 main 489 420 P____P___PP_P_ SH121970 -15.9924 58.9073 -1 -15.8004 59.0554 99 -15.9924 58.9073 TC 35 -16.0409 58.9197 2 -15.8004 59.0554 TC 37 17 228
1970022S11064 1970 8 SI MM HERMINE 1970-01-23 06:00:00 TS -16.4763 58.3461 reunion main 407 347 O____O___OP_O_ jtwc_sh SH121970 -16.5000 58.3000 -1 -16.4000 58.4000 3 9.90000 -16.5000 58.3000 TC 35 -16.5815 58.3306 2 -16.4000 58.4000 TC 40 15 224
1970022S11064 1970 8 SI MM HERMINE 1970-01-23 09:00:00 TS -17.0290 57.8500 main 346 291 P____P___PP_P_ SH121970 -17.0372 57.7075 -1 -16.9945 58.0544 3 -17.0372 57.7075 TC 35 -17.0814 57.7261 2 -16.9945 58.0544 TC 40 14 222
1970022S11064 1970 8 SI MM HERMINE 1970-01-23 12:00:00 TS -17.5000 57.3800 reunion main 291 262 O____O___OO_O_ jtwc_sh SH121970 -17.5000 57.1000 -1 -17.5000 57.8000 99 9.90000 -17.5000 57.1000 TC 35 -17.5000 57.1000 2 -17.5000 57.8000 TC 40 13 231
1970022S11064 1970 8 SI MM HERMINE 1970-01-23 15:00:00 TS -17.8247 56.8369 main 267 256 P____P___PP_P_ SH121970 -17.8023 56.4646 -1 -17.8598 57.4373 99 -17.8023 56.4646 TC 35 -17.7993 56.3808 2 -17.8598 57.4373 TC 42 12 243
1970022S11064 1970 8 SI MM HERMINE 1970-01-23 18:00:00 TS -18.0428 56.2503 reunion main 266 262 O____O___OP_O_ jtwc_sh SH121970 -18.0000 55.8000 -1 -18.1000 57.0000 99 9.90000 -18.0000 55.8000 TC 35 -18.0139 55.6516 2 -18.1000 57.0000 TC 45 12 251
1970022S11064 1970 8 SI MM HERMINE 1970-01-23 21:00:00 TS -18.2273 55.6174 main 291 290 P____P___PP_P_ SH121970 -18.1727 55.0624 -1 -18.3098 56.4952 99 -18.1727 55.0624 TC 35 -18.1713 54.9716 2 -18.3098 56.4952 TC 47 12 256
1970022S11064 1970 8 SI MM HERMINE 1970-01-24 00:00:00 TS -18.3400 55.0000 reunion main 303 293 O____O___OO_O_ jtwc_sh SH121970 -18.3000 54.4000 -1 -18.4000 55.9000 99 9.90000 -18.3000 54.4000 TC 35 -18.3000 54.4000 2 -18.4000 55.9000 TC 50 11 263
1970022S11064 1970 8 SI MM HERMINE 1970-01-24 03:00:00 TS -18.3687 54.4244 main 305 305 P____P___PP_P_ SH121970 -18.3997 53.9174 -1 -18.3155 55.1694 99 -18.3997 53.9174 TC 35 -18.4129 53.9485 2 -18.3155 55.1694 TC 50 10 268
1970022S11064 1970 8 SI MM HERMINE 1970-01-24 06:00:00 TS -18.3822 53.9634 reunion main 321 321 O____O___OP_O_ jtwc_sh SH121970 -18.5000 53.6000 -1 -18.2000 54.5000 3 9.90000 -18.5000 53.6000 TC 35 -18.5112 53.6171 2 -18.2000 54.5000 TC 50 7 263
1970022S11064 1970 8 SI MM HERMINE 1970-01-24 09:00:00 TS -18.4495 53.6784 main 335 325 P____P___PP_P_ SH121970 -18.6274 53.3900 -1 -18.1820 54.1049 3 -18.6274 53.3900 TC 35 -18.6289 53.4021 2 -18.1820 54.1049 TC 52 5 244
1970022S11064 1970 8 SI MM HERMINE 1970-01-24 12:00:00 TS -18.6000 53.5000 reunion main 327 322 O____O___OO_O_ jtwc_sh SH121970 -18.8000 53.3000 -1 -18.3000 53.8000 99 9.90000 -18.8000 53.3000 TC 35 -18.8000 53.3000 2 -18.3000 53.8000 TC 55 6 224
1970022S11064 1970 8 SI MM HERMINE 1970-01-24 15:00:00 TS -18.8425 53.2730 main 322 297 P____P___PP_P_ SH121970 -19.0124 53.2476 -1 -18.5827 53.3108 99 -19.0124 53.2476 TC 35 -19.0224 53.2482 2 -18.5827 53.3108 TC 55 7 207
1970022S11064 1970 8 SI MM HERMINE 1970-01-24 18:00:00 TS -19.1814 53.1813 reunion main 297 259 O____O___OP_O_ jtwc_sh SH121970 -19.3000 53.3000 -1 -19.0000 53.0000 99 9.90000 -19.3000 53.3000 TC 35 -19.3069 53.3064 2 -19.0000 53.0000 TC 55 7 176
1970022S11064 1970 8 SI MM HERMINE 1970-01-24 21:00:00 TS -19.5855 53.3202 main 259 207 P____P___PP_P_ SH121970 -19.6549 53.4403 -1 -19.4774 53.1296 99 -19.6549 53.4403 TC 35 -19.6630 53.4613 2 -19.4774 53.1296 TC 57 10 155
1970022S11064 1970 8 SI MM HERMINE 1970-01-25 00:00:00 TS -20.0600 53.6200 reunion main 200 141 O____O___OO_O_ jtwc_sh SH121970 -20.1000 53.7000 -1 -20.0000 53.5000 99 9.90000 -20.1000 53.7000 TC 35 -20.1000 53.7000 2 -20.0000 53.5000 TC 60 12 148
1970022S11064 1970 8 SI MM HERMINE 1970-01-25 03:00:00 TS -20.5705 53.9834 main 136 82 P____P___PP_P_ SH121970 -20.6126 54.0774 -1 -20.5150 53.8774 99 -20.6126 54.0774 TC 35 -20.5972 54.0073 2 -20.5150 53.8774 TC 62 13 145
1970022S11064 1970 8 SI MM HERMINE 1970-01-25 06:00:00 TS -21.1147 54.3978 reunion main 82 61 O____O___OP_O_ jtwc_sh SH121970 -21.2000 54.5000 -1 -21.0000 54.3000 4 9.90000 -21.2000 54.5000 TC 35 -21.1735 54.3890 2 -21.0000 54.3000 TC 65 13 144
1970022S11064 1970 8 SI MM HERMINE 1970-01-25 09:00:00 TS -21.6506 54.8133 main 68 60 P____P___PP_P_ SH121970 -21.8349 54.8652 -1 -21.3852 54.7673 4 -21.8349 54.8652 TC 35 -21.8129 54.8013 2 -21.3852 54.7673 TC 62 14 148
1970022S11064 1970 8 SI MM HERMINE 1970-01-25 12:00:00 TS -22.2667 55.1667 reunion main 108 108 O____O___OO_O_ jtwc_sh SH121970 -22.5000 55.2000 -1 -21.8000 55.1000 99 9.90000 -22.5000 55.2000 TC 35 -22.5000 55.2000 2 -21.8000 55.1000 TC 60 14 157
1970022S11064 1970 8 SI MM HERMINE 1970-01-25 15:00:00 TS -22.9418 55.4089 main 168 168 P____P___PP_P_ SH121970 -23.1199 55.5081 -1 -22.3549 55.1407 99 -23.1199 55.5081 TC 35 -23.1498 55.5160 2 -22.3549 55.1407 TC 57 15 161
1970022S11064 1970 8 SI MM HERMINE 1970-01-25 18:00:00 TS -23.7000 55.6890 reunion main 257 257 O____O___OP_O_ jtwc_sh SH121970 -23.8000 55.8000 -1 -23.0000 55.0000 99 9.90000 -23.8000 55.8000 TC 35 -23.8498 55.8115 2 -23.0000 55.0000 TC 55 18 159
1970022S11064 1970 8 SI MM HERMINE 1970-01-25 21:00:00 TS -24.5966 56.0958 main 361 361 P________PP___ SH121970 -24.5825 56.0932 -1 99 -24.5825 56.0932 TC 35 -24.6249 56.1011 2 TC 19 160
1970022S11064 1970 8 SI MM HERMINE 1970-01-26 00:00:00 TS -25.5000 56.4000 reunion main 465 465 O________OO___ jtwc_sh SH121970 -25.5000 56.4000 -1 -25.5000 56.4000 TC 35 -25.5000 56.4000 2 20 163
1970022S11064 1970 8 SI MM HERMINE 1970-01-26 03:00:00 TS -26.5456 56.7453 main 580 580 P________PP___ SH121970 -26.5625 56.7427 -1 -26.5625 56.7427 TC 35 -26.5119 56.7505 2 23 164
1970022S11064 1970 8 SI MM HERMINE 1970-01-26 06:00:00 TS -27.6727 57.1044 reunion main 720 720 O________OP___ jtwc_sh SH121970 -27.7000 57.1000 -1 -27.7000 57.1000 TC 35 -27.6182 57.1131 2 23 164
1970022S11064 1970 8 SI MM HERMINE 1970-01-26 09:00:00 TS -28.7934 57.4618 main 848 848 P________PP___ SH121970 -28.8074 57.4579 -1 -28.8074 57.4579 TC 35 -28.7653 57.4694 2 23 165
1970022S11064 1970 8 SI MM HERMINE 1970-01-26 12:00:00 TS -29.9000 57.8000 reunion main 974 974 O________OO___ jtwc_sh SH121970 -29.9000 57.8000 -1 -29.9000 57.8000 TC 35 -29.9000 57.8000 2 23 165
1970022S11064 1970 8 SI MM HERMINE 1970-01-26 15:00:00 TS -30.9703 58.1117 main 1100 1100 P________PP___ SH121970 -30.9649 58.1229 -1 -30.9649 58.1229 TC 35 -30.9812 58.0893 2 22 167
1970022S11064 1970 8 SI MM HERMINE 1970-01-26 18:00:00 TS -32.0047 58.3813 reunion main 1215 1215 O________OP___ jtwc_sh SH121970 -32.0000 58.4000 -1 -32.0000 58.4000 TC 35 -32.0141 58.3439 2 21 168
1970022S11064 1970 8 SI MM HERMINE 1970-01-26 21:00:00 TS -33.0101 58.6034 main 1328 1328 P________PP___ SH121970 -33.0075 58.6169 -1 -33.0075 58.6169 TC 35 -33.0151 58.5763 2 20 170
1970022S11064 1970 8 SI MM HERMINE 1970-01-27 00:00:00 TS -34.0000 58.8000 reunion main 1441 O________OO___ jtwc_sh SH121970 -34.0000 58.8000 -1 -34.0000 58.8000 TC 35 -34.0000 58.8000 2 20 171

About IBTrACS Database

This database is a web-friendly format of International Best Track Archive for Climate Stewardship (IBTrACS), a global best track data archive curated by NOAA dating back to 1842.

Updated: 2021-10-08